Time;durP1;ratioP1;P1;durP2;ratioP2;P2;SDS_P1;SDS_P2;PMS_P1;PMS_P2;Temp;Humidity;BMP_temperature;BMP_pressure;BME280_temperature;BME280_humidity;BME280_pressure;Samples;Min_cycle;Max_cycle;Signal;HPM_P1;HPM_P2
2023/04/03 00:01:31;;;;;;;;;30.00;29.00;;;;;10.56;56.44;102161.25;5069984;28;45734;-70
2023/04/03 00:03:56;;;;;;;;;31.25;25.25;;;;;10.61;55.90;102168.66;5063474;28;45056;-69
2023/04/03 00:06:22;;;;;;;;;24.50;21.25;;;;;10.61;55.92;102160.66;5072867;28;45579;-69
2023/04/03 00:08:49;;;;;;;;;28.50;21.50;;;;;10.58;56.12;102168.50;5071559;28;45053;-69
2023/04/03 00:11:15;;;;;;;;;29.50;22.25;;;;;10.61;56.11;102171.34;5065025;28;45855;-72
2023/04/03 00:13:40;;;;;;;;;26.50;23.75;;;;;10.55;56.47;102157.66;5068980;28;45758;-69
2023/04/03 00:16:07;;;;;;;;;27.25;24.25;;;;;10.61;56.27;102171.34;5071120;28;45183;-70
2023/04/03 00:18:33;;;;;;;;;25.00;21.25;;;;;10.60;56.25;102163.25;5070520;28;45233;-69
2023/04/03 00:20:58;;;;;;;;;25.50;23.75;;;;;10.58;56.26;102163.16;5070755;28;46164;-69
2023/04/03 00:23:24;;;;;;;;;27.75;22.50;;;;;10.51;55.86;102147.69;5069795;28;48524;-68
2023/04/03 00:25:50;;;;;;;;;27.25;22.75;;;;;10.62;55.80;102164.22;5070543;28;45082;-69
2023/04/03 00:28:16;;;;;;;;;26.50;22.75;;;;;10.57;55.63;102160.41;5069400;28;44926;-70
2023/04/03 00:30:41;;;;;;;;;32.75;20.75;;;;;10.51;55.71;102163.72;5071099;28;45081;-68
2023/04/03 00:33:07;;;;;;;;;29.75;25.50;;;;;10.50;55.79;102164.56;5068265;28;45095;-69
2023/04/03 00:35:34;;;;;;;;;23.75;22.75;;;;;10.51;55.73;102171.75;5069659;28;45940;-69
2023/04/03 00:38:00;;;;;;;;;30.25;22.75;;;;;10.53;55.86;102163.81;5069276;28;45174;-68
2023/04/03 00:40:27;;;;;;;;;28.00;21.50;;;;;10.56;55.59;102170.22;5069339;28;45762;-68
2023/04/03 00:42:57;;;;;;;;;31.50;21.50;;;;;10.55;55.76;102172.81;5071878;28;45002;-69
2023/04/03 00:45:32;;;;;;;;;25.75;24.00;;;;;10.49;55.69;102169.00;5072323;28;44976;-69
2023/04/03 00:48:01;;;;;;;;;24.75;20.75;;;;;10.48;55.43;102167.13;5063362;28;44996;-69
2023/04/03 00:50:29;;;;;;;;;27.25;26.00;;;;;10.53;55.71;102180.75;5067810;28;45170;-68
2023/04/03 00:52:55;;;;;;;;;23.25;21.00;;;;;10.47;56.13;102170.63;5071778;28;45206;-68
2023/04/03 00:55:21;;;;;;;;;30.25;25.50;;;;;10.49;55.22;102174.34;5069192;28;45198;-69
2023/04/03 00:57:48;;;;;;;;;31.00;23.75;;;;;10.49;55.77;102170.72;5072118;28;45069;-69
2023/04/03 01:00:18;;;;;;;;;26.50;22.25;;;;;10.46;55.86;102167.88;5067318;28;45452;-68
2023/04/03 01:02:44;;;;;;;;;33.50;27.00;;;;;10.50;55.82;102160.09;5063560;28;45115;-70
2023/04/03 01:05:11;;;;;;;;;22.25;19.75;;;;;10.49;55.51;102146.66;5063622;28;44907;-68
2023/04/03 01:07:37;;;;;;;;;23.75;21.75;;;;;10.54;55.48;102161.16;5069605;28;45210;-69
2023/04/03 01:10:08;;;;;;;;;26.00;21.50;;;;;10.54;55.35;102160.25;5067643;28;46133;-69
2023/04/03 01:12:39;;;;;;;;;27.50;24.50;;;;;10.49;55.36;102142.28;5066098;28;44993;-69
2023/04/03 01:15:11;;;;;;;;;22.50;20.75;;;;;10.54;55.36;102152.25;5068738;28;45384;-69
2023/04/03 01:17:40;;;;;;;;;26.75;22.00;;;;;10.54;55.73;102147.81;5069841;28;45028;-69
2023/04/03 01:20:35;;;;;;;;;29.75;22.00;;;;;10.53;55.40;102150.44;5055334;28;45073;-69
2023/04/03 01:23:12;;;;;;;;;27.00;22.50;;;;;10.55;55.28;102151.41;5069533;28;45293;-69
2023/04/03 01:25:39;;;;;;;;;32.00;25.25;;;;;10.50;55.32;102146.75;5066235;28;45034;-69
2023/04/03 01:28:07;;;;;;;;;26.75;25.25;;;;;10.52;56.01;102157.50;5065364;28;45322;-69
2023/04/03 01:30:39;;;;;;;;;25.00;23.00;;;;;10.51;55.96;102156.63;5069257;28;47637;-69
2023/04/03 01:33:04;;;;;;;;;24.50;21.75;;;;;10.38;55.41;102130.13;5066799;28;45060;-68
2023/04/03 01:35:30;;;;;;;;;21.25;19.50;;;;;10.39;56.52;102141.72;5056010;28;45094;-69
2023/04/03 01:37:55;;;;;;;;;27.75;25.75;;;;;10.39;55.87;102147.06;5061243;28;45037;-69
2023/04/03 01:40:20;;;;;;;;;25.75;23.00;;;;;10.43;55.87;102138.38;5050245;28;47196;-70
2023/04/03 01:42:46;;;;;;;;;29.75;26.50;;;;;10.41;56.34;102140.03;5062416;28;44966;-69
2023/04/03 01:45:11;;;;;;;;;32.50;26.25;;;;;10.42;56.46;102144.56;5065191;28;45108;-68
2023/04/03 01:47:37;;;;;;;;;29.50;23.50;;;;;10.39;56.55;102149.75;5068372;28;44891;-68
2023/04/03 01:50:03;;;;;;;;;29.75;24.50;;;;;10.43;56.91;102155.31;5062813;28;45431;-67
2023/04/03 01:52:28;;;;;;;;;27.00;19.75;;;;;10.42;56.55;102148.13;5065113;28;45114;-68
2023/04/03 01:54:54;;;;;;;;;24.50;24.00;;;;;10.42;56.78;102152.56;5065479;28;45087;-69
2023/04/03 01:57:19;;;;;;;;;26.50;24.25;;;;;10.30;56.60;102142.16;5062792;28;45319;-69
2023/04/03 01:59:45;;;;;;;;;25.00;22.00;;;;;10.33;57.03;102145.03;5059373;28;46307;-68
2023/04/03 02:02:12;;;;;;;;;31.50;20.00;;;;;10.31;56.73;102139.56;5065664;28;44953;-69
2023/04/03 02:04:37;;;;;;;;;27.25;23.75;;;;;10.29;56.80;102151.00;5067990;28;45254;-68
2023/04/03 02:07:03;;;;;;;;;28.75;22.75;;;;;10.14;56.94;102148.47;5061855;28;45184;-68
2023/04/03 02:09:28;;;;;;;;;28.75;25.00;;;;;10.05;56.91;102134.69;5064927;28;45633;-68
2023/04/03 02:11:54;;;;;;;;;27.75;25.50;;;;;10.09;57.41;102144.66;5066816;28;45284;-68
2023/04/03 02:14:21;;;;;;;;;29.00;23.75;;;;;10.08;56.82;102146.41;5064563;28;45184;-67
2023/04/03 02:16:47;;;;;;;;;26.25;21.75;;;;;10.03;56.57;102147.00;5059670;28;45222;-68
2023/04/03 02:19:12;;;;;;;;;28.75;23.50;;;;;9.98;57.15;102148.53;5069201;28;45282;-67
2023/04/03 02:21:37;;;;;;;;;27.00;25.00;;;;;10.00;57.36;102147.78;5054587;28;45083;-68
2023/04/03 02:24:03;;;;;;;;;27.00;21.00;;;;;10.04;56.97;102148.84;5057174;28;45357;-69
2023/04/03 02:26:28;;;;;;;;;28.75;22.75;;;;;10.03;56.58;102152.34;5069317;28;45300;-69
2023/04/03 02:28:53;;;;;;;;;19.00;14.25;;;;;10.03;56.17;102139.94;5066988;28;65634;-69
2023/04/03 02:31:19;;;;;;;;;25.50;21.25;;;;;10.09;56.58;102148.22;5062737;28;44929;-68
2023/04/03 02:33:44;;;;;;;;;26.50;23.75;;;;;10.13;56.52;102144.91;5068019;28;45090;-69
2023/04/03 02:36:10;;;;;;;;;23.00;19.25;;;;;10.16;56.29;102141.44;5070351;28;45137;-69
2023/04/03 02:38:35;;;;;;;;;26.75;17.25;;;;;10.16;56.65;102149.47;5065250;28;45843;-69
2023/04/03 02:41:06;;;;;;;;;24.50;20.00;;;;;10.19;56.68;102146.03;5066519;28;45052;-68
2023/04/03 02:43:32;;;;;;;;;24.75;20.75;;;;;10.19;56.47;102143.38;5066363;28;45210;-69
2023/04/03 02:45:57;;;;;;;;;27.75;18.50;;;;;10.27;56.00;102147.34;5071294;28;45112;-69
2023/04/03 02:48:24;;;;;;;;;27.25;23.25;;;;;10.22;55.74;102135.50;5072527;28;45144;-67
2023/04/03 02:50:49;;;;;;;;;25.00;19.50;;;;;10.24;55.75;102144.50;5062726;28;45299;-69
2023/04/03 02:53:15;;;;;;;;;24.00;16.00;;;;;10.11;55.91;102130.56;5073141;28;45270;-69
2023/04/03 02:55:40;;;;;;;;;21.75;17.00;;;;;10.17;56.15;102143.28;5072918;28;45219;-69
2023/04/03 02:58:06;;;;;;;;;21.25;16.75;;;;;10.21;55.93;102149.69;5068686;28;46962;-69
2023/04/03 03:00:31;;;;;;;;;22.00;18.25;;;;;10.11;55.92;102140.31;5071905;28;45526;-68
2023/04/03 03:02:57;;;;;;;;;29.75;23.25;;;;;10.13;55.95;102142.22;5068760;28;45188;-69
2023/04/03 03:05:22;;;;;;;;;25.25;15.75;;;;;10.09;56.52;102131.31;5069920;28;45215;-68
2023/04/03 03:07:48;;;;;;;;;20.25;18.25;;;;;10.15;55.71;102140.53;5065963;28;45162;-68
2023/04/03 03:10:14;;;;;;;;;20.00;20.00;;;;;10.10;56.36;102135.81;5073512;28;45229;-68
2023/04/03 03:12:40;;;;;;;;;23.75;20.75;;;;;10.11;56.19;102149.25;5073555;28;45074;-69
2023/04/03 03:15:06;;;;;;;;;19.50;18.25;;;;;9.97;56.67;102126.25;5056389;28;45347;-68
2023/04/03 03:17:31;;;;;;;;;25.50;18.75;;;;;10.10;56.33;102147.41;5052758;28;47759;-67
2023/04/03 03:19:57;;;;;;;;;21.75;21.75;;;;;10.03;55.66;102125.66;5065376;28;45044;-69
2023/04/03 03:22:22;;;;;;;;;20.50;18.75;;;;;10.10;56.07;102139.41;5072577;28;45004;-69
2023/04/03 03:24:47;;;;;;;;;20.50;16.75;;;;;10.07;55.94;102135.66;5067825;28;45254;-69
2023/04/03 03:27:13;;;;;;;;;16.50;14.25;;;;;10.11;55.85;102145.63;5058004;28;45443;-68
2023/04/03 03:29:38;;;;;;;;;19.25;17.50;;;;;10.07;55.74;102133.91;5063343;28;45031;-68
2023/04/03 03:32:04;;;;;;;;;22.50;16.00;;;;;10.08;55.61;102146.41;5063539;28;47910;-68
2023/04/03 03:34:29;;;;;;;;;19.50;16.00;;;;;10.03;55.23;102128.31;5067557;28;45106;-68
2023/04/03 03:36:55;;;;;;;;;12.75;11.75;;;;;10.05;54.98;102142.69;5068576;28;45155;-69
2023/04/03 03:39:20;;;;;;;;;17.25;13.75;;;;;10.03;54.90;102139.00;5060880;28;45213;-69
2023/04/03 03:41:46;;;;;;;;;28.50;16.50;;;;;10.00;54.67;102145.13;5070989;28;45028;-68
2023/04/03 03:44:11;;;;;;;;;16.00;15.00;;;;;9.95;54.38;102144.88;5069849;28;45357;-68
2023/04/03 03:46:36;;;;;;;;;22.50;16.00;;;;;9.95;54.44;102141.28;5064125;28;46077;-68
2023/04/03 03:49:02;;;;;;;;;24.50;18.25;;;;;9.96;55.09;102138.72;5067958;28;53871;-68
2023/04/03 03:51:27;;;;;;;;;20.00;16.25;;;;;9.99;54.38;102143.28;5066229;28;45340;-68
2023/04/03 03:53:53;;;;;;;;;24.00;17.25;;;;;10.01;54.39;102141.59;5062504;28;45437;-67
2023/04/03 03:56:18;;;;;;;;;13.25;13.25;;;;;9.91;53.88;102115.25;5066345;28;45636;-68
2023/04/03 03:58:43;;;;;;;;;17.00;14.00;;;;;9.87;53.85;102103.50;5060833;28;45072;-69
2023/04/03 04:01:08;;;;;;;;;21.00;16.00;;;;;10.08;54.18;102141.06;5070435;28;45201;-69
2023/04/03 04:03:34;;;;;;;;;15.50;12.75;;;;;10.03;54.30;102122.97;5067620;28;45102;-69
2023/04/03 04:05:59;;;;;;;;;18.00;16.00;;;;;10.00;53.39;102138.84;5070117;28;45561;-68
2023/04/03 04:08:25;;;;;;;;;17.25;13.00;;;;;9.94;53.49;102139.44;5069180;28;45027;-68
2023/04/03 04:10:50;;;;;;;;;18.50;17.00;;;;;10.00;53.51;102146.84;5070685;28;45553;-69
2023/04/03 04:13:16;;;;;;;;;15.75;13.50;;;;;10.02;52.84;102145.19;5071306;28;45091;-67
2023/04/03 04:15:42;;;;;;;;;15.25;14.00;;;;;10.00;52.73;102141.50;5063999;28;45144;-68
2023/04/03 04:18:07;;;;;;;;;20.75;15.25;;;;;9.96;52.87;102137.78;5068400;28;45295;-68
2023/04/03 04:20:33;;;;;;;;;20.50;15.75;;;;;9.92;53.28;102134.03;5070741;28;45038;-68
2023/04/03 04:22:58;;;;;;;;;20.50;15.75;;;;;9.98;53.14;102137.84;5069690;28;45326;-68
2023/04/03 04:25:24;;;;;;;;;19.50;16.25;;;;;9.92;53.02;102114.44;5062907;28;49550;-68
2023/04/03 04:27:49;;;;;;;;;16.75;12.50;;;;;9.95;52.34;102122.59;5067092;28;45151;-68
2023/04/03 04:30:14;;;;;;;;;20.25;15.00;;;;;10.03;52.46;102145.28;5071871;28;45368;-67
2023/04/03 04:32:40;;;;;;;;;19.00;16.50;;;;;10.02;51.92;102134.50;5060488;28;45424;-68
2023/04/03 04:35:06;;;;;;;;;17.75;14.50;;;;;9.96;51.47;102135.09;5071391;28;45776;-67
2023/04/03 04:37:31;;;;;;;;;20.25;14.25;;;;;10.00;51.48;102134.44;5065813;28;45189;-68
2023/04/03 04:39:57;;;;;;;;;26.00;16.75;;;;;9.99;50.86;102140.59;5062481;28;45047;-67
2023/04/03 04:42:22;;;;;;;;;19.75;16.50;;;;;9.96;50.20;102137.78;5074439;27;45274;-67
2023/04/03 04:44:47;;;;;;;;;16.50;15.25;;;;;9.95;50.50;102141.28;5072971;28;45565;-67
2023/04/03 04:47:13;;;;;;;;;20.25;17.75;;;;;9.94;50.74;102137.69;5060383;28;45174;-67
2023/04/03 04:49:39;;;;;;;;;21.00;16.00;;;;;9.93;50.50;102140.28;5061459;28;45215;-67
2023/04/03 04:52:04;;;;;;;;;12.25;12.25;;;;;9.93;50.12;102149.22;5070155;28;44949;-67
2023/04/03 04:54:30;;;;;;;;;24.50;17.00;;;;;9.85;50.31;102126.56;5067935;28;45229;-68
2023/04/03 04:56:55;;;;;;;;;15.75;15.25;;;;;9.85;49.85;102134.56;5064077;28;45208;-68
2023/04/03 04:59:20;;;;;;;;;18.75;13.50;;;;;9.88;50.28;102147.13;5065875;28;45417;-68
2023/04/03 05:01:46;;;;;;;;;21.50;19.00;;;;;9.77;50.22;102131.50;5056131;28;45121;-68
2023/04/03 05:04:12;;;;;;;;;16.50;14.25;;;;;9.89;49.88;102152.56;5060923;28;48960;-67
2023/04/03 05:06:39;;;;;;;;;15.25;14.75;;;;;9.93;50.08;102150.94;5068849;28;45192;-68
2023/04/03 05:09:05;;;;;;;;;15.75;14.25;;;;;9.84;49.21;102142.50;5071689;28;44964;-69
2023/04/03 05:11:30;;;;;;;;;21.00;17.75;;;;;9.86;48.68;102151.50;5062893;28;45449;-67
2023/04/03 05:13:55;;;;;;;;;24.25;20.50;;;;;9.85;48.95;102149.63;5053828;28;45509;-68
2023/04/03 05:16:21;;;;;;;;;17.50;15.00;;;;;9.91;49.42;102152.63;5064351;28;45363;-70
2023/04/03 05:18:46;;;;;;;;;18.50;14.50;;;;;9.91;49.57;102141.97;5057585;28;45098;-68
2023/04/03 05:21:12;;;;;;;;;19.25;16.50;;;;;9.85;49.29;102136.28;5058026;28;45247;-67
2023/04/03 05:23:37;;;;;;;;;17.50;16.50;;;;;9.92;48.60;102157.16;5065219;28;46309;-69
2023/04/03 05:26:03;;;;;;;;;22.75;20.25;;;;;9.84;48.81;102146.06;5062929;28;45212;-69
2023/04/03 05:28:28;;;;;;;;;19.50;15.75;;;;;9.48;49.55;102073.94;5063772;28;45259;-67
2023/04/03 05:30:55;;;;;;;;;16.50;15.75;;;;;9.94;49.38;102159.03;5062738;28;45367;-68
2023/04/03 05:33:21;;;;;;;;;21.50;18.50;;;;;9.86;48.44;102139.03;5071538;28;45740;-68
2023/04/03 05:35:47;;;;;;;;;22.75;21.25;;;;;9.91;48.24;102149.97;5070479;28;45536;-68
2023/04/03 05:38:12;;;;;;;;;17.75;16.50;;;;;9.86;48.74;102154.16;5070801;28;45467;-67
2023/04/03 05:40:38;;;;;;;;;22.00;16.25;;;;;9.84;48.96;102158.50;5067492;28;45942;-68
2023/04/03 05:43:04;;;;;;;;;20.50;18.50;;;;;9.77;49.00;102139.50;5070957;28;45522;-67
2023/04/03 05:45:30;;;;;;;;;18.00;18.00;;;;;9.86;48.33;102154.16;5065774;28;45166;-67
2023/04/03 05:47:55;;;;;;;;;20.75;19.25;;;;;9.80;48.53;102144.09;5069406;28;44835;-67
2023/04/03 05:50:21;;;;;;;;;21.75;16.25;;;;;9.74;48.28;102149.09;5069573;28;45241;-68
2023/04/03 05:52:48;;;;;;;;;22.50;19.00;;;;;9.84;48.57;102161.19;5060584;28;46157;-67
2023/04/03 05:55:14;;;;;;;;;28.00;20.75;;;;;9.69;48.18;102121.25;5068424;28;45647;-68
2023/04/03 05:57:40;;;;;;;;;30.25;26.00;;;;;9.87;47.62;102158.66;5060141;28;45081;-68
2023/04/03 06:00:09;;;;;;;;;21.75;19.75;;;;;9.84;48.35;102158.50;5067144;28;45044;-69
2023/04/03 06:02:35;;;;;;;;;25.75;23.50;;;;;9.77;48.34;102139.50;5068587;28;46071;-68
2023/04/03 06:05:01;;;;;;;;;27.00;22.00;;;;;9.91;47.84;102174.00;5066432;28;45312;-68
2023/04/03 06:07:28;;;;;;;;;25.00;19.00;;;;;9.89;47.21;102165.00;5060500;28;45381;-67
2023/04/03 06:09:55;;;;;;;;;22.25;15.75;;;;;9.78;47.59;102145.75;5069007;28;45234;-68
2023/04/03 06:12:21;;;;;;;;;23.50;18.75;;;;;9.66;47.50;102148.69;5056362;28;45563;-68
2023/04/03 06:14:47;;;;;;;;;25.75;21.00;;;;;9.74;47.16;102166.03;5057171;28;45412;-67
2023/04/03 06:17:13;;;;;;;;;21.00;20.50;;;;;9.78;48.12;102167.09;5069257;28;45205;-68
2023/04/03 06:19:38;;;;;;;;;23.25;21.00;;;;;9.85;47.88;102173.66;5067767;28;45456;-68
2023/04/03 06:22:04;;;;;;;;;23.00;19.25;;;;;9.80;46.69;102162.78;5067408;28;45593;-68
2023/04/03 06:24:30;;;;;;;;;16.50;15.00;;;;;9.71;47.80;102157.84;5063853;28;45201;-68
2023/04/03 06:26:56;;;;;;;;;20.75;17.50;;;;;9.78;47.27;102167.09;5059492;28;45159;-69
2023/04/03 06:29:22;;;;;;;;;21.25;18.25;;;;;9.67;47.19;102154.94;5069044;28;45525;-68
2023/04/03 06:31:48;;;;;;;;;24.00;20.00;;;;;9.69;47.88;102175.53;5070926;28;45452;-68
2023/04/03 06:34:15;;;;;;;;;22.00;17.25;;;;;9.67;47.26;102162.94;5070743;28;45205;-69
2023/04/03 06:36:41;;;;;;;;;22.50;17.25;;;;;9.62;47.44;102157.38;5062365;28;45277;-68
2023/04/03 06:39:06;;;;;;;;;22.25;22.00;;;;;9.69;47.37;102156.84;5058711;28;45319;-68
2023/04/03 06:41:32;;;;;;;;;37.25;32.25;;;;;9.66;47.16;102148.69;5072367;28;45907;-70
2023/04/03 06:43:58;;;;;;;;;27.00;21.25;;;;;9.73;47.49;102166.88;5073435;28;45186;-68
2023/04/03 06:46:26;;;;;;;;;25.00;20.00;;;;;9.32;46.93;102096.25;5073424;28;45119;-67
2023/04/03 06:48:52;;;;;;;;;27.25;18.50;;;;;9.69;46.46;102159.53;5067953;28;45471;-68
2023/04/03 06:51:22;;;;;;;;;23.00;18.00;;;;;9.77;46.83;102181.28;5050249;28;48191;-68
2023/04/03 06:53:51;;;;;;;;;25.00;22.75;;;;;9.78;47.67;102173.38;5046126;28;46322;-71
2023/04/03 06:56:18;;;;;;;;;22.00;19.75;;;;;9.79;47.60;102171.59;5052387;28;45556;-70
2023/04/03 06:58:44;;;;;;;;;20.75;17.25;;;;;9.85;47.93;102177.28;5052182;28;45465;-70
2023/04/03 07:01:12;;;;;;;;;21.75;19.75;;;;;9.51;46.93;102116.78;5045429;28;45513;-70
2023/04/03 07:03:37;;;;;;;;;25.50;21.75;;;;;9.78;47.06;102162.69;5053557;28;45644;-72
2023/04/03 07:06:04;;;;;;;;;23.25;19.50;;;;;9.88;46.99;102179.16;5045810;28;45622;-69
2023/04/03 07:08:30;;;;;;;;;27.75;21.25;;;;;9.93;47.57;102180.31;5050065;28;45554;-68
2023/04/03 07:10:56;;;;;;;;;26.75;21.75;;;;;9.94;46.54;102179.50;5039410;28;46354;-69
2023/04/03 07:13:21;;;;;;;;;18.25;15.00;;;;;9.89;47.05;102165.91;5053990;28;45747;-66
2023/04/03 07:15:47;;;;;;;;;23.50;19.75;;;;;9.92;47.04;102159.81;5054456;28;45508;-68
2023/04/03 07:18:12;;;;;;;;;21.00;16.75;;;;;10.05;46.99;102172.06;5061207;28;45353;-67
2023/04/03 07:20:39;;;;;;;;;23.25;20.50;;;;;10.06;46.73;102172.09;5055492;28;47004;-67
2023/04/03 07:23:04;;;;;;;;;27.25;22.00;;;;;10.04;47.03;102176.47;5042412;28;45535;-68
2023/04/03 07:25:29;;;;;;;;;26.75;22.25;;;;;10.01;47.42;102172.72;5046501;28;45426;-65
2023/04/03 07:27:55;;;;;;;;;21.50;17.50;;;;;10.10;47.01;102176.78;5047727;28;45322;-67
2023/04/03 07:30:21;;;;;;;;;19.25;16.00;;;;;10.11;47.03;102162.59;5044858;28;46060;-67
2023/04/03 07:32:46;;;;;;;;;22.00;19.00;;;;;10.14;46.82;102181.44;5052732;28;45730;-67
2023/04/03 07:35:12;;;;;;;;;23.75;22.00;;;;;10.14;46.70;102169.84;5044263;28;45577;-69
2023/04/03 07:37:38;;;;;;;;;20.00;18.25;;;;;10.19;47.79;102178.09;5057499;28;45286;-67
2023/04/03 07:40:04;;;;;;;;;20.25;15.25;;;;;10.18;46.94;102176.25;5085550;22;45483;-63
2023/04/03 07:42:30;;;;;;;;;18.00;13.75;;;;;10.24;46.94;102187.25;5056937;28;45545;-62
2023/04/03 07:44:56;;;;;;;;;22.75;17.25;;;;;10.30;47.15;102182.22;5054350;28;45556;-63
2023/04/03 07:47:22;;;;;;;;;22.50;19.25;;;;;10.31;47.28;102176.97;5058113;27;45448;-63
2023/04/03 07:49:48;;;;;;;;;19.75;18.25;;;;;10.37;47.23;102183.47;5058955;28;45479;-63
2023/04/03 07:52:15;;;;;;;;;18.50;16.75;;;;;10.39;46.58;102177.34;5066248;28;45456;-64
2023/04/03 07:54:40;;;;;;;;;15.75;13.00;;;;;10.41;47.04;102183.72;5058657;28;45366;-64
2023/04/03 07:57:07;;;;;;;;;16.00;14.00;;;;;10.42;46.62;102181.94;5075305;27;45459;-62
2023/04/03 07:59:33;;;;;;;;;23.00;15.25;;;;;10.37;46.71;102196.84;5059090;28;45769;-65
2023/04/03 08:01:59;;;;;;;;;14.00;13.50;;;;;10.29;46.77;102177.72;5061228;27;45656;-64
2023/04/03 08:04:25;;;;;;;;;16.75;14.25;;;;;10.29;47.22;102175.94;5056625;28;44910;-64
2023/04/03 08:06:51;;;;;;;;;16.50;14.00;;;;;10.27;46.75;102158.03;5059359;27;45529;-65
2023/04/03 08:09:17;;;;;;;;;20.25;14.50;;;;;10.49;47.08;102190.38;5056740;28;46189;-64
2023/04/03 08:11:43;;;;;;;;;15.75;15.75;;;;;10.44;46.26;102169.59;5062340;27;45512;-64
2023/04/03 08:14:10;;;;;;;;;14.00;12.75;;;;;10.54;46.42;102192.34;5060284;28;45549;-62
2023/04/03 08:16:36;;;;;;;;;14.00;11.25;;;;;10.53;46.57;102185.19;5063033;28;46414;-64
2023/04/03 08:19:01;;;;;;;;;13.00;12.50;;;;;10.48;46.96;102192.97;5054052;28;45595;-64
2023/04/03 08:21:27;;;;;;;;;18.50;14.00;;;;;10.36;46.68;102176.28;5054857;28;45463;-64
2023/04/03 08:23:52;;;;;;;;;15.50;11.50;;;;;10.37;46.23;102183.47;5055201;28;45492;-63
2023/04/03 08:26:21;;;;;;;;;13.50;7.50;;;;;10.45;45.80;102182.13;5058399;28;45404;-64
2023/04/03 08:28:47;;;;;;;;;15.00;13.50;;;;;10.54;46.40;102176.31;5054319;28;45453;-65
2023/04/03 08:31:16;;;;;;;;;13.00;10.75;;;;;10.65;46.02;102183.09;5055074;28;45413;-63
2023/04/03 08:33:42;;;;;;;;;12.50;10.75;;;;;10.48;45.41;102147.53;5053891;28;45570;-64
2023/04/03 08:36:17;;;;;;;;;11.75;9.25;;;;;10.69;45.32;102179.72;5053725;28;45744;-63
2023/04/03 08:38:42;;;;;;;;;14.75;9.00;;;;;10.79;45.12;102190.03;5055990;28;46375;-65
2023/04/03 08:41:20;;;;;;;;;8.25;8.25;;;;;10.86;44.04;102183.22;5053303;28;45419;-63
2023/04/03 08:43:45;;;;;;;;;14.75;9.50;;;;;10.90;44.16;102185.19;5057054;28;45494;-64
2023/04/03 08:46:15;;;;;;;;;5.75;5.75;;;;;10.72;43.55;102144.22;5055463;28;45481;-63
2023/04/03 08:48:42;;;;;;;;;9.25;9.25;;;;;10.78;43.87;102160.56;5051417;28;45335;-65
2023/04/03 08:51:15;;;;;;;;;8.50;6.50;;;;;10.87;43.60;102179.69;5057663;28;45483;-63
2023/04/03 08:53:50;;;;;;;;;7.00;7.00;;;;;10.80;43.68;102178.47;5060984;28;45505;-64
2023/04/03 08:56:18;;;;;;;;;5.00;5.00;;;;;10.67;43.66;102157.34;5068296;28;45382;-64
2023/04/03 08:59:00;;;;;;;;;11.25;9.25;;;;;10.73;43.69;102162.09;5053569;28;46406;-64
2023/04/03 09:01:39;;;;;;;;;7.50;7.50;;;;;10.87;43.76;102177.03;5054719;28;45423;-63
2023/04/03 09:04:16;;;;;;;;;0.00;0.00;;;;;10.81;43.62;102164.28;5063915;28;45416;-64
2023/04/03 09:06:54;;;;;;;;;6.75;6.25;;;;;10.91;43.04;102168.31;5062698;28;45445;-65
2023/04/03 09:09:38;;;;;;;;;6.50;6.50;;;;;10.92;43.42;102180.81;5059825;28;45853;-64
2023/04/03 09:12:19;;;;;;;;;9.00;7.00;;;;;10.98;43.52;102180.22;5061773;28;45569;-64
2023/04/03 09:14:50;;;;;;;;;11.75;7.25;;;;;10.98;43.40;102181.13;5053099;28;45863;-65
2023/04/03 09:17:26;;;;;;;;;7.75;6.50;;;;;10.93;43.27;102160.38;5059630;28;45244;-63
2023/04/03 09:20:10;;;;;;;;;10.50;10.00;;;;;11.07;43.24;102167.31;5055908;28;45508;-65
2023/04/03 09:22:41;;;;;;;;;8.00;6.75;;;;;11.21;43.65;102183.97;5056270;28;45533;-65
2023/04/03 09:25:21;;;;;;;;;5.50;5.50;;;;;11.28;42.68;102182.50;5056863;28;45519;-64
2023/04/03 09:27:47;;;;;;;;;14.75;7.75;;;;;11.25;42.82;102167.22;5055115;28;45583;-63
2023/04/03 09:30:15;;;;;;;;;7.50;7.00;;;;;11.32;42.28;102182.72;5058348;28;46004;-64
2023/04/03 09:32:42;;;;;;;;;6.50;4.50;;;;;11.25;42.00;102175.25;5053544;28;45447;-65
2023/04/03 09:35:18;;;;;;;;;7.00;5.00;;;;;11.28;42.58;102180.75;5057919;28;45546;-64
2023/04/03 09:37:46;;;;;;;;;5.50;5.50;;;;;11.25;41.96;102173.50;5057677;28;45633;-67
2023/04/03 09:40:41;;;;;;;;;8.00;6.75;;;;;11.33;41.65;102179.19;5062489;28;45430;-74
2023/04/03 09:43:34;;;;;;;;;7.25;6.75;;;;;11.41;43.00;102171.53;5061797;28;45433;-73
2023/04/03 09:46:29;;;;;;;;;7.00;6.00;;;;;11.33;41.58;102151.53;5053231;28;45471;-65
2023/04/03 09:49:00;;;;;;;;;5.00;5.00;;;;;11.60;41.18;102176.88;5055516;28;45397;-62
2023/04/03 09:51:29;;;;;;;;;5.00;5.00;;;;;11.50;40.98;102150.53;5055792;28;47214;-64
2023/04/03 09:53:56;;;;;;;;;8.25;6.75;;;;;11.63;40.67;102176.06;5053442;28;45583;-74
2023/04/03 09:56:25;;;;;;;;;5.00;5.00;;;;;11.61;41.63;102157.31;5059428;28;45458;-65
2023/04/03 09:59:15;;;;;;;;;5.00;5.00;;;;;11.65;41.24;102165.44;5066595;28;45557;-64
2023/04/03 10:02:02;;;;;;;;;11.50;7.25;;;;;11.73;40.63;102166.69;5056438;28;46282;-61
2023/04/03 10:04:39;;;;;;;;;7.50;7.50;;;;;11.80;40.33;102160.78;5053355;28;47008;-63
2023/04/03 10:07:29;;;;;;;;;5.50;5.50;;;;;11.94;40.53;102153.38;5058176;28;45510;-63
2023/04/03 10:10:01;;;;;;;;;7.75;7.75;;;;;12.00;40.35;102152.75;5054439;28;45720;-62
2023/04/03 10:12:26;;;;;;;;;10.75;9.50;;;;;11.91;39.65;102145.16;5055463;28;47076;-63
2023/04/03 10:15:00;;;;;;;;;9.75;8.50;;;;;12.09;39.68;102163.84;5056321;28;45534;-65
2023/04/03 10:17:47;;;;;;;;;5.50;5.00;;;;;12.16;39.58;102163.28;5056627;28;45419;-60
2023/04/03 10:20:44;;;;;;;;;9.00;8.75;;;;;12.32;38.92;102144.31;5057612;28;45514;-61
2023/04/03 10:23:16;;;;;;;;;6.50;6.00;;;;;12.40;38.94;102141.94;5052630;28;45519;-64
2023/04/03 10:26:16;;;;;;;;;7.00;6.00;;;;;12.50;37.96;102129.81;5055364;28;45487;-62
2023/04/03 10:28:58;;;;;;;;;11.00;9.00;;;;;12.54;38.07;102127.34;5055031;28;45639;-60
2023/04/03 10:31:32;;;;;;;;;11.00;8.00;;;;;12.64;38.25;102130.41;5056055;28;45513;-60
2023/04/03 10:34:04;;;;;;;;;9.75;7.25;;;;;12.68;38.45;102125.19;5055328;28;46838;-60
2023/04/03 10:36:39;;;;;;;;;3.50;3.50;;;;;12.59;36.81;102127.53;5052496;28;45592;-62
2023/04/03 10:39:32;;;;;;;;;10.50;9.00;;;;;12.45;37.19;102091.19;5054345;28;45459;-63
2023/04/03 10:42:08;;;;;;;;;10.50;6.25;;;;;12.61;36.82;102104.34;5054072;28;45457;-68
2023/04/03 10:44:43;;;;;;;;;8.50;8.25;;;;;12.76;37.27;102121.91;5053558;28;45434;-62
2023/04/03 10:47:46;;;;;;;;;10.00;6.50;;;;;12.80;37.32;102116.75;5054744;28;45425;-65
2023/04/03 10:50:37;;;;;;;;;7.00;7.00;;;;;12.91;36.26;102111.78;5053469;28;45469;-62
2023/04/03 10:53:19;;;;;;;;;6.00;6.00;;;;;12.98;35.73;102105.78;5051381;28;45534;-62
2023/04/03 10:56:01;;;;;;;;;7.25;7.25;;;;;13.07;36.61;102108.81;5051391;28;45379;-62
2023/04/03 10:58:27;;;;;;;;;6.00;5.00;;;;;13.21;36.22;102103.97;5052207;28;45337;-63
2023/04/03 11:00:56;;;;;;;;;8.75;7.75;;;;;13.21;35.38;102092.31;5056250;28;45484;-62
2023/04/03 11:03:31;;;;;;;;;7.00;7.00;;;;;13.27;35.71;102093.47;5055724;28;45219;-62
2023/04/03 11:06:00;;;;;;;;;7.75;6.00;;;;;13.35;36.06;102098.25;5053060;28;46643;-61
2023/04/03 11:08:42;;;;;;;;;5.50;5.50;;;;;13.34;35.44;102089.28;5058631;28;45353;-62
2023/04/03 11:11:32;;;;;;;;;10.00;7.00;;;;;13.39;35.56;102103.78;5056115;28;45451;-65
2023/04/03 11:14:05;;;;;;;;;6.00;6.00;;;;;13.34;35.13;102089.28;5052729;28;45323;-63
2023/04/03 11:16:37;;;;;;;;;10.00;8.00;;;;;13.34;35.56;102086.59;5069192;27;48831;-62
2023/04/03 11:19:12;;;;;;;;;5.75;5.75;;;;;13.36;35.69;102087.53;5055816;28;45432;-62
2023/04/03 11:21:44;;;;;;;;;6.00;6.00;;;;;13.30;35.60;102081.00;5055370;28;45454;-61